Time;durP1;ratioP1;P1;durP2;ratioP2;P2;SDS_P1;SDS_P2;PMS_P1;PMS_P2;Temp;Humidity;BMP_temperature;BMP_pressure;BME280_temperature;BME280_humidity;BME280_pressure;Samples;Min_cycle;Max_cycle;Signal;HPM_P1;HPM_P2
2023/01/25 05:00:11;;;;;;;34.78;21.40;;;;;;;3.30;82.17;102096.59;5612870;31;78112;-58
2023/01/25 05:03:14;;;;;;;36.35;22.77;;;;;;;3.30;82.17;102096.59;5602839;31;33413;-59
2023/01/25 05:06:17;;;;;;;36.30;21.33;;;;;;;3.06;80.49;102101.28;5603119;31;33342;-59
2023/01/25 05:09:20;;;;;;;35.97;22.25;;;;;;;3.06;80.28;102103.09;5599788;31;32258;-59
2023/01/25 05:12:22;;;;;;;34.05;22.70;;;;;;;3.16;80.92;102105.44;5603531;31;34310;-59
2023/01/25 05:15:25;;;;;;;35.95;21.75;;;;;;;3.25;79.95;102113.09;5589437;31;34288;-59
2023/01/25 05:18:27;;;;;;;36.78;22.37;;;;;;;3.34;79.63;102108.47;5583566;31;34263;-59
2023/01/25 05:21:57;;;;;;;36.58;22.77;;;;;;;3.40;79.69;102105.06;5583764;31;34424;-59
2023/01/25 05:25:01;;;;;;;33.47;22.35;;;;;;;3.44;80.08;102108.16;5584546;31;33216;-59
2023/01/25 05:28:05;;;;;;;37.13;22.70;;;;;;;3.52;79.68;102102.72;5586459;31;33625;-59
2023/01/25 05:31:08;;;;;;;34.60;22.27;;;;;;;3.63;79.46;102107.50;5583301;31;33178;-59
2023/01/25 05:34:11;;;;;;;33.47;22.80;;;;;;;3.66;90.09;102106.31;5583850;31;33422;-59
2023/01/25 05:37:16;;;;;;;35.00;22.58;;;;;;;3.69;80.75;102106.75;5587464;31;33346;-59
2023/01/25 05:40:19;;;;;;;33.70;21.63;;;;;;;3.81;82.00;102104.41;5598206;31;33317;-59
2023/01/25 05:43:23;;;;;;;33.05;21.20;;;;;;;3.86;83.27;102107.28;5585474;31;34379;-59
2023/01/25 05:46:27;;;;;;;29.40;19.30;;;;;;;4.03;81.98;102099.84;5583634;31;34212;-59
2023/01/25 05:49:30;;;;;;;31.65;20.45;;;;;;;4.15;82.75;102105.44;5583147;31;32095;-59
2023/01/25 05:52:32;;;;;;;28.33;20.02;;;;;;;4.27;81.77;102095.88;5583527;31;33172;-59
2023/01/25 05:55:35;;;;;;;28.27;19.73;;;;;;;4.16;85.29;102099.09;5583407;31;33371;-59
2023/01/25 05:58:38;;;;;;;31.45;20.02;;;;;;;4.26;82.58;102096.91;5583226;31;33277;-59
2023/01/25 06:01:41;;;;;;;28.85;19.27;;;;;;;4.29;86.54;102098.34;5583177;31;33411;-59
2023/01/25 06:04:43;;;;;;;24.92;17.77;;;;;;;4.26;90.47;102110.19;5599026;31;34329;-59
2023/01/25 06:07:46;;;;;;;26.83;17.77;;;;;;;4.35;83.84;102101.06;5599209;31;34607;-58
2023/01/25 06:10:49;;;;;;;24.17;17.12;;;;;;;4.32;94.28;102106.75;5592654;31;34337;-59
2023/01/25 06:13:52;;;;;;;27.33;18.60;;;;;;;4.29;84.04;102107.13;5589198;31;33483;-59
2023/01/25 06:16:55;;;;;;;28.98;18.10;;;;;;;4.22;85.16;102114.25;5581941;31;33667;-59
2023/01/25 06:19:57;;;;;;;27.65;17.37;;;;;;;4.29;83.62;102112.44;5587435;31;34358;-59
2023/01/25 06:23:00;;;;;;;22.30;15.05;;;;;;;4.47;93.14;102119.91;5578821;31;33154;-59
2023/01/25 06:26:06;;;;;;;22.95;14.55;;;;;;;4.43;84.94;102114.16;5569394;31;33681;-59
2023/01/25 06:29:08;;;;;;;21.40;14.18;;;;;;;4.71;92.41;102121.25;5567715;32;33782;-59
2023/01/25 06:32:10;;;;;;;22.27;13.88;;;;;;;4.80;86.67;102125.37;5570949;31;33604;-59
2023/01/25 06:35:13;;;;;;;20.70;12.90;;;;;;;5.14;80.71;102121.78;5568938;31;33494;-59
2023/01/25 06:38:15;;;;;;;39.50;14.52;;;;;;;4.98;82.82;102129.31;5567674;32;33607;-59
2023/01/25 06:41:19;;;;;;;29.25;13.00;;;;;;;5.05;82.65;102130.97;5570260;31;33743;-58
2023/01/25 06:44:21;;;;;;;20.23;13.13;;;;;;;5.20;83.64;102128.16;5589073;31;33748;-58
2023/01/25 06:47:23;;;;;;;22.65;13.07;;;;;;;5.12;80.12;102125.66;5588567;31;34269;-59
2023/01/25 06:50:26;;;;;;;21.55;14.50;;;;;;;5.44;90.03;102129.41;5575266;31;33772;-58
2023/01/25 06:53:30;;;;;;;21.92;14.57;;;;;;;5.64;100.00;102134.75;5568952;31;34825;-59
2023/01/25 06:56:33;;;;;;;22.55;15.00;;;;;;;5.67;100.00;102133.53;5568968;32;33676;-59
2023/01/25 06:59:35;;;;;;;21.10;13.05;;;;;;;5.56;94.57;102132.25;5569193;32;33720;-58
2023/01/25 07:02:37;;;;;;;20.20;12.68;;;;;;;5.68;86.68;102127.97;5565461;31;33346;-58
2023/01/25 07:05:40;;;;;;;20.40;13.40;;;;;;;5.46;79.32;102122.03;5555223;31;34453;-59
2023/01/25 07:08:42;;;;;;;18.75;12.63;;;;;;;5.36;89.01;102125.09;5556089;32;33229;-59
2023/01/25 07:11:45;;;;;;;20.35;13.38;;;;;;;5.49;78.65;102126.94;5558718;32;34417;-58
2023/01/25 07:14:48;;;;;;;18.37;11.98;;;;;;;5.45;82.09;102128.37;5578302;31;33829;-58
2023/01/25 07:17:51;;;;;;;18.67;12.90;;;;;;;5.45;77.71;102128.37;5554468;31;34276;-59
2023/01/25 07:20:53;;;;;;;19.77;12.80;;;;;;;5.50;87.04;102123.28;5551086;32;33586;-59
2023/01/25 07:24:01;;;;;;;19.60;13.40;;;;;;;5.38;74.89;102122.22;5575105;31;33715;-59
2023/01/25 07:27:03;;;;;;;18.60;12.55;;;;;;;5.28;79.73;102119.97;5565819;31;33820;-59
2023/01/25 07:30:06;;;;;;;18.45;12.77;;;;;;;5.31;76.34;102124.87;5569403;31;33603;-58
2023/01/25 07:33:10;;;;;;;19.77;13.10;;;;;;;5.52;94.39;102131.84;5562231;31;33588;-59
2023/01/25 07:36:13;;;;;;;21.95;13.68;;;;;;;5.47;77.19;102122.88;5558671;31;34313;-59
2023/01/25 07:39:16;;;;;;;20.65;13.62;;;;;;;5.77;85.94;102129.41;5552143;32;34309;-59
2023/01/25 07:42:18;;;;;;;18.45;13.23;;;;;;;5.64;95.70;102135.56;5558568;32;33708;-58
2023/01/25 07:45:29;;;;;;;22.33;14.02;;;;;;;5.70;83.49;102125.94;5550931;32;34321;-59
2023/01/25 07:48:32;;;;;;;19.23;12.57;;;;;;;5.64;92.51;102132.09;5562248;32;33636;-59
2023/01/25 07:51:34;;;;;;;18.75;12.77;;;;;;;5.50;76.33;102127.78;5568510;32;33685;-59
2023/01/25 07:54:36;;;;;;;19.85;12.20;;;;;;;5.87;90.93;102126.34;5575049;31;33652;-59
2023/01/25 07:57:38;;;;;;;18.50;12.77;;;;;;;5.84;77.05;102129.41;5568612;31;33589;-59
2023/01/25 08:00:41;;;;;;;21.95;13.80;;;;;;;5.77;98.14;102133.94;5568178;32;33687;-59
2023/01/25 08:03:45;;;;;;;21.23;13.80;;;;;;;5.72;78.67;102123.06;5568369;31;33085;-59
2023/01/25 08:06:47;;;;;;;21.48;13.55;;;;;;;5.96;87.75;102124.31;5579964;31;34258;-58
2023/01/25 08:09:49;;;;;;;24.77;16.02;;;;;;;5.68;75.49;102129.84;5587920;31;33604;-59
2023/01/25 08:12:51;;;;;;;22.45;14.05;;;;;;;5.98;98.39;102128.41;5587289;31;34323;-59
2023/01/25 08:15:55;;;;;;;22.08;14.77;;;;;;;6.22;85.29;102128.78;5577806;31;32216;-58
2023/01/25 08:18:59;;;;;;;22.30;14.27;;;;;;;6.11;93.93;102125.72;5568009;32;33945;-58
2023/01/25 08:22:01;;;;;;;23.10;14.27;;;;;;;6.31;100.00;102125.69;5567297;32;33668;-59
2023/01/25 08:25:04;;;;;;;20.80;13.70;;;;;;;6.26;80.45;102127.34;5567157;31;33565;-59
2023/01/25 08:28:06;;;;;;;24.37;15.57;;;;;;;6.09;89.84;102129.63;5587806;31;33581;-59
2023/01/25 08:31:20;;;;;;;21.70;14.23;;;;;;;6.48;100.00;102126.03;5576317;31;33758;-59
2023/01/25 08:34:22;;;;;;;20.40;13.13;;;;;;;6.05;76.19;102123.88;5575416;31;33605;-59
2023/01/25 08:37:28;;;;;;;21.42;14.18;;;;;;;5.74;73.89;102113.06;5569627;31;34291;-59
2023/01/25 08:40:30;;;;;;;19.70;13.73;;;;;;;5.85;94.76;102110.56;5567798;32;34300;-59
2023/01/25 08:43:33;;;;;;;23.75;14.30;;;;;;;5.91;81.47;102111.59;5561150;32;34188;-59
2023/01/25 08:46:35;;;;;;;22.33;14.02;;;;;;;5.89;78.36;102113.62;5565820;31;34256;-59
2023/01/25 08:49:37;;;;;;;22.05;14.32;;;;;;;6.24;100.00;102116.91;5568324;31;33662;-59
2023/01/25 08:52:40;;;;;;;20.73;14.52;;;;;;;6.24;89.82;102119.56;5574846;31;33700;-59
2023/01/25 08:55:42;;;;;;;22.98;12.98;;;;;;;6.11;95.24;102108.94;5564889;31;33708;-59
2023/01/25 08:58:46;;;;;;;18.48;11.98;;;;;;;6.33;82.77;102113.00;5552443;31;34416;-59
2023/01/25 09:01:48;;;;;;;18.98;12.27;;;;;;;5.91;77.65;102105.47;5562811;32;34336;-59
2023/01/25 09:04:51;;;;;;;22.37;13.15;;;;;;;5.97;79.30;102107.34;5567711;32;33744;-59
2023/01/25 09:07:54;;;;;;;19.12;12.98;;;;;;;6.18;99.94;102098.28;5568048;32;33735;-59
2023/01/25 09:11:05;;;;;;;23.90;13.02;;;;;;;6.01;86.16;102106.69;5578884;31;34250;-59
2023/01/25 09:14:08;;;;;;;23.33;13.18;;;;;;;6.01;75.40;102112.03;5567541;31;32449;-59
2023/01/25 09:17:10;;;;;;;21.35;13.85;;;;;;;6.40;94.37;102101.50;5566253;31;33815;-59
2023/01/25 09:20:14;;;;;;;23.62;13.98;;;;;;;6.19;86.62;102105.22;5567329;31;34337;-59
2023/01/25 09:23:21;;;;;;;33.25;18.50;;;;;;;5.96;77.81;102101.19;5566524;31;33211;-59
2023/01/25 09:26:24;;;;;;;;;;;;;;;6.13;85.12;102101.56;5567687;32;34324;-59
2023/01/25 09:29:26;;;;;;;28.65;16.30;;;;;;;6.05;73.84;102094.59;5567042;31;33855;-59
2023/01/25 09:32:28;;;;;;;21.60;13.73;;;;;;;6.44;100.00;102095.53;5569387;31;33730;-59
2023/01/25 09:35:34;;;;;;;22.48;14.35;;;;;;;6.70;84.11;102093.78;5567374;31;33760;-59
2023/01/25 09:38:37;;;;;;;29.40;19.77;;;;;;;6.39;86.57;102095.34;5566894;32;33632;-59
2023/01/25 09:41:45;;;;;;;30.77;20.90;;;;;;;6.82;100.00;102092.91;5560918;32;33627;-59
2023/01/25 09:45:12;;;;;;;29.02;21.37;;;;;;;7.21;100.00;102100.87;5558664;31;33712;-59
2023/01/25 09:48:40;;;;;;;29.17;15.38;;;;;;;6.96;86.95;102092.84;5572991;31;33567;-59
2023/01/25 09:52:09;;;;;;;24.67;15.73;;;;;;;6.80;86.12;102086.16;5565303;31;33886;-59
2023/01/25 09:55:15;;;;;;;22.20;15.05;;;;;;;6.56;87.62;102075.19;5573442;31;33610;-59
2023/01/25 10:02:03;;;;;;;22.75;16.00;;;;;;;6.49;100.00;102071.75;5585912;31;33731;-59
2023/01/25 10:05:17;;;;;;;23.50;14.65;;;;;;;6.36;79.10;102063.81;5558052;32;34298;-59
2023/01/25 10:08:43;;;;;;;22.42;14.98;;;;;;;6.03;72.34;102058.59;5559717;31;34130;-59
2023/01/25 10:11:46;;;;;;;19.95;13.98;;;;;;;6.20;75.59;102058.94;5570043;31;34112;-59
2023/01/25 10:14:50;;;;;;;20.52;14.25;;;;;;;6.47;81.22;102051.66;5567117;31;34301;-59
2023/01/25 10:18:38;;;;;;;24.80;14.85;;;;;;;6.68;85.74;102048.69;5566515;31;34306;-59
2023/01/25 10:21:44;;;;;;;25.95;15.02;;;;;;;6.64;79.42;102044.00;5562096;31;33282;-60
2023/01/25 10:24:50;;;;;;;29.00;14.70;;;;;;;6.75;97.66;102041.47;5566474;31;33789;-59
2023/01/25 10:28:16;;;;;;;21.48;14.20;;;;;;;6.48;75.54;102034.66;5569346;31;33767;-59
2023/01/25 10:31:26;;;;;;;25.12;15.75;;;;;;;6.64;100.00;102028.00;5573248;31;33710;-59
2023/01/25 10:34:37;;;;;;;23.77;15.23;;;;;;;6.80;89.57;102017.66;5569612;31;33979;-58
2023/01/25 10:38:05;;;;;;;24.08;14.85;;;;;;;6.36;73.47;102023.84;5561267;32;33017;-59
2023/01/25 10:41:15;;;;;;;23.50;14.30;;;;;;;6.16;73.54;102023.94;5565160;31;34520;-59
2023/01/25 10:44:20;;;;;;;22.25;14.32;;;;;;;6.55;86.49;102016.78;5560478;31;33904;-60
2023/01/25 10:47:27;;;;;;;23.15;12.88;;;;;;;6.62;91.52;102012.22;5569055;31;33244;-59
2023/01/25 10:50:45;;;;;;;22.62;12.98;;;;;;;6.50;73.51;102005.97;5574250;31;33889;-59
2023/01/25 10:53:59;;;;;;;20.20;12.75;;;;;;;6.17;73.81;102004.25;5559572;32;34387;-58
2023/01/25 10:57:05;;;;;;;20.60;12.57;;;;;;;6.15;79.81;102003.63;5564979;31;33574;-59
2023/01/25 11:00:38;;;;;;;18.97;12.70;;;;;;;6.06;81.58;102003.06;5566662;31;34079;-58
2023/01/25 11:03:45;;;;;;;20.35;12.20;;;;;;;6.11;80.05;101999.78;5556902;32;34329;-59
2023/01/25 11:06:50;;;;;;;;;;;;;;;6.15;72.13;101992.97;5564441;32;34417;-59
2023/01/25 11:09:53;;;;;;;24.05;13.62;;;;;;;6.20;76.23;102001.19;5581534;31;34606;-59
2023/01/25 11:13:16;;;;;;;20.83;13.00;;;;;;;6.47;97.30;101983.22;5568473;32;33685;-59
2023/01/25 11:16:34;;;;;;;21.08;12.02;;;;;;;6.29;76.32;101975.09;5562121;31;33686;-59
2023/01/25 11:19:39;;;;;;;20.90;12.90;;;;;;;6.21;74.98;101978.84;5574280;31;33606;-59
2023/01/25 11:22:52;;;;;;;23.25;13.65;;;;;;;7.01;100.00;101968.50;5568007;32;34386;-60
2023/01/25 11:26:14;;;;;;;21.23;12.48;;;;;;;7.45;100.00;101965.84;5556978;32;33557;-59
2023/01/25 11:29:18;;;;;;;18.62;12.27;;;;;;;7.32;98.19;101961.47;5563241;31;33574;-59
2023/01/25 11:32:23;;;;;;;18.52;12.63;;;;;;;7.00;73.22;101958.87;5568920;32;34359;-59
2023/01/25 11:35:31;;;;;;;21.17;12.57;;;;;;;7.00;89.20;101947.41;5568274;31;34415;-59
2023/01/25 11:38:34;;;;;;;15.80;11.73;;;;;;;7.01;89.47;101941.03;5571627;31;33685;-59
2023/01/25 11:41:42;;;;;;;18.17;12.35;;;;;;;6.48;72.47;101942.22;5573976;31;34456;-59
2023/01/25 11:44:54;;;;;;;21.75;13.50;;;;;;;6.44;73.47;101934.87;5564091;32;34528;-59
2023/01/25 11:48:22;;;;;;;18.90;12.90;;;;;;;6.47;76.88;101927.28;5568610;31;34448;-59
2023/01/25 11:51:32;;;;;;;18.77;13.38;;;;;;;6.29;76.16;101916.50;5568332;31;33732;-59
2023/01/25 11:54:48;;;;;;;18.60;12.25;;;;;;;6.68;88.83;101911.97;5582953;31;33767;-59
2023/01/25 11:58:09;;;;;;;18.60;12.45;;;;;;;6.62;74.84;101902.97;5588580;31;33776;-59
2023/01/25 12:01:23;;;;;;;21.87;14.32;;;;;;;6.63;84.53;101887.81;5571859;31;33610;-59
2023/01/25 12:04:46;;;;;;;22.48;13.55;;;;;;;6.96;93.30;101882.22;5580594;31;33183;-59
2023/01/25 12:08:10;;;;;;;22.00;13.35;;;;;;;6.76;88.82;101879.72;5584091;31;34379;-59
2023/01/25 12:11:19;;;;;;;20.55;13.40;;;;;;;6.92;87.23;101873.00;5573247;31;34422;-59
2023/01/25 12:14:54;;;;;;;29.85;14.25;;;;;;;6.88;82.63;101866.47;5555567;31;34439;-59
2023/01/25 12:18:25;;;;;;;24.27;14.32;;;;;;;6.79;90.55;101865.97;5567967;31;32381;-60
2023/01/25 12:21:53;;;;;;;22.62;13.30;;;;;;;6.57;75.76;101866.31;5562464;31;33862;-60
2023/01/25 12:25:34;;;;;;;22.48;14.00;;;;;;;6.71;87.37;101852.91;5574244;31;33734;-60
2023/01/25 12:29:13;;;;;;;21.80;14.45;;;;;;;6.58;84.52;101856.47;5515267;31;33661;-59
2023/01/25 12:32:37;;;;;;;23.48;15.00;;;;;;;6.52;73.40;101852.84;5586669;31;34342;-59
2023/01/25 12:36:00;;;;;;;25.75;13.68;;;;;;;6.63;91.24;101851.34;5568142;31;34433;-59
2023/01/25 12:39:06;;;;;;;23.70;15.27;;;;;;;6.91;73.58;101842.06;5566129;31;33199;-60
2023/01/25 12:42:21;;;;;;;22.30;14.67;;;;;;;7.11;99.09;101839.19;5571601;31;34533;-59
2023/01/25 12:45:26;;;;;;;18.83;14.07;;;;;;;6.99;93.44;101839.94;5565228;31;33706;-60
2023/01/25 12:48:35;;;;;;;23.03;14.63;;;;;;;6.90;84.43;101838.56;5578351;31;33843;-60
2023/01/25 12:51:40;;;;;;;21.15;13.35;;;;;;;6.74;72.26;101833.81;5565500;31;33719;-59
2023/01/25 12:54:46;;;;;;;21.90;13.55;;;;;;;6.99;81.40;101834.59;5558965;31;33605;-59
2023/01/25 12:58:13;;;;;;;18.55;12.48;;;;;;;6.81;79.46;101826.56;5547276;32;33652;-59
2023/01/25 13:01:25;;;;;;;22.15;13.50;;;;;;;6.77;74.23;101831.50;5548725;32;33393;-59
2023/01/25 13:05:02;;;;;;;21.42;12.65;;;;;;;6.78;97.67;101816.34;5560832;32;33602;-59
2023/01/25 13:08:20;;;;;;;20.37;13.48;;;;;;;7.00;95.76;101814.88;5561151;32;33784;-59
2023/01/25 13:11:39;;;;;;;21.42;13.93;;;;;;;7.11;96.57;101821.34;5560029;32;34449;-59
2023/01/25 13:14:41;;;;;;;19.20;12.95;;;;;;;6.97;75.58;101812.66;5567184;32;33877;-59
2023/01/25 13:17:44;;;;;;;21.55;13.38;;;;;;;7.13;73.22;101808.59;5567460;32;33235;-59
2023/01/25 13:20:50;;;;;;;19.65;13.62;;;;;;;6.94;74.54;101804.28;5567448;32;33670;-59
2023/01/25 13:24:11;;;;;;;19.67;13.90;;;;;;;6.92;90.53;101801.03;5568379;32;33591;-59
2023/01/25 13:27:25;;;;;;;22.08;13.85;;;;;;;6.73;72.51;101795.69;5553679;32;34399;-59
2023/01/25 13:30:31;;;;;;;22.08;14.20;;;;;;;6.61;70.95;101793.94;5550544;32;34539;-59
2023/01/25 13:33:34;;;;;;;20.98;13.60;;;;;;;6.61;69.98;101789.44;5558821;32;34283;-59
2023/01/25 13:36:44;;;;;;;21.85;13.25;;;;;;;6.64;82.98;101793.53;5567090;31;34090;-59
2023/01/25 13:39:52;;;;;;;18.92;12.55;;;;;;;6.68;81.65;101790.19;5560485;31;34924;-59
2023/01/25 13:43:00;;;;;;;21.62;14.05;;;;;;;6.56;70.67;101779.44;5589336;31;34384;-59
2023/01/25 13:46:05;;;;;;;19.90;13.20;;;;;;;6.68;69.46;101784.84;5587952;31;34122;-59
2023/01/25 13:49:19;;;;;;;23.23;13.82;;;;;;;6.94;89.13;101790.97;5574773;31;33843;-59
2023/01/25 13:52:24;;;;;;;21.65;13.93;;;;;;;6.93;84.75;101778.69;5568622;31;33531;-59
2023/01/25 13:55:28;;;;;;;24.27;14.23;;;;;;;6.79;79.50;101783.34;5575681;31;34804;-59
2023/01/25 13:58:35;;;;;;;25.02;14.38;;;;;;;6.77;72.96;101786.22;5569416;32;33355;-59
2023/01/25 14:01:37;;;;;;;25.60;13.90;;;;;;;6.95;90.58;101784.59;5569348;31;33420;-59
2023/01/25 14:04:40;;;;;;;54.90;38.00;;;;;;;6.89;76.86;101775.66;5569770;31;33720;-59
2023/01/25 14:07:44;;;;;;;23.40;13.30;;;;;;;7.03;93.66;101782.44;5570039;31;32471;-59
2023/01/25 14:10:48;;;;;;;20.27;12.02;;;;;;;7.40;86.53;101776.28;5582739;31;34336;-59
2023/01/25 14:14:21;;;;;;;23.75;13.35;;;;;;;7.08;71.36;101760.44;5586676;31;33688;-59
2023/01/25 14:17:24;;;;;;;22.73;14.57;;;;;;;6.80;70.10;101771.63;5557448;31;33667;-59
2023/01/25 14:20:26;;;;;;;22.95;14.60;;;;;;;6.72;81.27;101771.91;5571676;31;33286;-59
2023/01/25 14:23:29;;;;;;;21.85;13.23;;;;;;;7.13;75.28;101775.78;5566262;31;33690;-59
2023/01/25 14:26:37;;;;;;;26.00;16.02;;;;;;;6.94;83.90;101770.44;5576920;31;33386;-59
2023/01/25 14:29:40;;;;;;;20.95;13.50;;;;;;;6.79;72.29;101764.69;5570912;31;33907;-59
2023/01/25 14:32:42;;;;;;;28.45;16.95;;;;;;;6.72;72.75;101775.41;5568642;32;33460;-59
2023/01/25 14:35:47;;;;;;;30.12;22.73;;;;;;;6.62;73.67;101768.94;5568471;32;33879;-59
2023/01/25 14:38:57;;;;;;;24.37;12.90;;;;;;;6.57;77.97;101766.94;5568072;32;33682;-59
2023/01/25 14:42:00;;;;;;;22.00;13.23;;;;;;;6.55;73.86;101761.81;5578342;31;33809;-59
2023/01/25 14:45:03;;;;;;;25.08;13.77;;;;;;;6.72;71.38;101769.25;5569061;31;31519;-59
2023/01/25 14:48:40;;;;;;;33.70;20.27;;;;;;;6.86;68.90;101759.28;5570851;31;33658;-59
2023/01/25 14:51:44;;;;;;;30.08;20.70;;;;;;;6.67;73.95;101761.91;5575285;31;34364;-59
2023/01/25 14:54:49;;;;;;;24.48;15.15;;;;;;;6.68;88.47;101757.41;5589104;31;33705;-59
2023/01/25 14:57:56;;;;;;;26.42;15.60;;;;;;;6.94;83.24;101762.44;5576907;31;33672;-59
2023/01/25 15:01:01;;;;;;;24.73;15.00;;;;;;;6.88;81.54;101755.34;5561390;31;34368;-59
2023/01/25 15:04:10;;;;;;;24.45;15.07;;;;;;;7.10;77.78;101754.91;5568942;32;33722;-59
2023/01/25 15:07:50;;;;;;;31.12;16.37;;;;;;;6.92;69.76;101753.88;5569134;31;34480;-59
2023/01/25 15:10:55;;;;;;;24.00;14.70;;;;;;;6.96;75.01;101751.59;5550022;31;34442;-59
2023/01/25 15:14:03;;;;;;;22.87;14.98;;;;;;;6.87;77.51;101750.25;5576249;31;34427;-59
2023/01/25 15:17:05;;;;;;;27.85;17.42;;;;;;;6.75;71.71;101755.47;5588851;31;33933;-59
2023/01/25 15:20:29;;;;;;;25.90;17.90;;;;;;;6.71;70.62;101752.44;5588940;31;33990;-59
2023/01/25 15:23:32;;;;;;;27.60;16.02;;;;;;;6.73;78.57;101747.72;5549699;32;34306;-59
2023/01/25 15:26:35;;;;;;;24.02;15.85;;;;;;;6.59;71.83;101755.03;5558938;31;33704;-59
2023/01/25 15:29:39;;;;;;;25.90;15.43;;;;;;;6.67;77.49;101750.44;5570157;31;34443;-59
2023/01/25 15:32:42;;;;;;;29.23;15.75;;;;;;;6.63;71.70;101755.41;5569472;32;33653;-60
2023/01/25 15:35:45;;;;;;;26.37;17.60;;;;;;;6.66;81.88;101743.50;5569505;32;33799;-59
2023/01/25 15:38:47;;;;;;;30.80;17.62;;;;;;;6.53;77.11;101742.59;5581673;31;33939;-59
2023/01/25 15:41:50;;;;;;;25.73;16.85;;;;;;;6.69;77.60;101745.69;5554154;32;34273;-59
2023/01/25 15:44:52;;;;;;;25.85;16.75;;;;;;;6.67;72.95;101743.25;5560532;31;34487;-59
2023/01/25 15:47:54;;;;;;;24.45;16.37;;;;;;;6.55;73.33;101748.47;5569072;31;34297;-59
2023/01/25 15:50:57;;;;;;;22.92;16.17;;;;;;;6.57;72.85;101748.28;5575054;31;34002;-59
2023/01/25 15:53:59;;;;;;;26.52;16.12;;;;;;;6.50;73.44;101751.00;5569200;32;33681;-59
2023/01/25 15:57:02;;;;;;;25.88;16.62;;;;;;;6.57;81.75;101751.75;5574126;31;34441;-59
2023/01/25 16:00:05;;;;;;;36.85;17.65;;;;;;;6.54;71.90;101744.19;5583905;31;33642;-59
2023/01/25 16:03:08;;;;;;;25.50;17.25;;;;;;;6.48;74.94;101742.41;5583336;31;33850;-59
2023/01/25 16:06:39;;;;;;;28.73;17.95;;;;;;;6.44;83.32;101738.56;5570208;31;34428;-59
2023/01/25 16:09:41;;;;;;;28.58;18.37;;;;;;;6.44;79.28;101735.91;5584822;31;33974;-59
2023/01/25 16:12:44;;;;;;;25.67;19.20;;;;;;;6.44;73.91;101724.44;5588570;31;33687;-59
2023/01/25 16:15:50;;;;;;;27.05;17.85;;;;;;;6.39;81.84;101722.44;5576643;31;34254;-59
2023/01/25 16:18:53;;;;;;;28.62;19.40;;;;;;;6.33;72.61;101732.09;5585059;31;33536;-59
2023/01/25 16:21:55;;;;;;;25.52;17.35;;;;;;;6.30;76.18;101729.88;5569129;32;33655;-59
2023/01/25 16:24:59;;;;;;;26.75;17.85;;;;;;;6.37;82.49;101727.16;5569084;32;34359;-59
2023/01/25 16:28:02;;;;;;;28.83;18.17;;;;;;;6.29;83.97;101730.91;5549641;32;33782;-59
2023/01/25 16:31:04;;;;;;;29.30;18.37;;;;;;;6.41;80.74;101724.87;5549455;32;33757;-59
2023/01/25 16:34:08;;;;;;;24.35;17.40;;;;;;;6.34;76.86;101724.94;5585239;31;33757;-59
2023/01/25 16:37:14;;;;;;;26.75;18.37;;;;;;;6.57;88.25;101727.78;5584247;31;33737;-59
2023/01/25 16:40:23;;;;;;;28.38;17.73;;;;;;;6.49;84.46;101727.25;5568926;31;33506;-59
2023/01/25 16:43:25;;;;;;;28.23;18.60;;;;;;;6.50;85.32;101728.87;5570520;31;33813;-59
2023/01/25 16:46:40;;;;;;;31.70;20.30;;;;;;;6.38;78.25;101726.13;5579149;31;34427;-59
2023/01/25 16:49:42;;;;;;;38.30;26.33;;;;;;;6.30;75.97;101729.88;5567862;32;34129;-59
2023/01/25 16:52:44;;;;;;;39.03;29.05;;;;;;;6.43;89.86;101728.13;5570050;31;33641;-59
2023/01/25 16:55:48;;;;;;;34.90;21.35;;;;;;;6.34;81.12;101725.75;5588101;31;33801;-59
2023/01/25 16:58:52;;;;;;;31.65;23.67;;;;;;;6.38;75.62;101726.13;5574472;31;33686;-59
